createdAt,value
2023-05-09T00:00:25.008Z,12.70
2023-05-09T00:02:52.152Z,12.80
2023-05-09T00:05:19.353Z,12.80
2023-05-09T00:07:45.941Z,12.80
2023-05-09T00:10:12.618Z,12.90
2023-05-09T00:12:39.350Z,12.90
2023-05-09T00:15:10.006Z,12.90
2023-05-09T00:17:38.387Z,13.00
2023-05-09T00:20:09.246Z,13.00
2023-05-09T00:22:35.912Z,13.10
2023-05-09T00:25:02.670Z,13.10
2023-05-09T00:27:30.605Z,13.20
2023-05-09T00:29:57.281Z,13.20
2023-05-09T00:32:25.679Z,13.20
2023-05-09T00:34:52.351Z,13.20
2023-05-09T00:37:19.216Z,13.30
2023-05-09T00:39:46.113Z,13.30
2023-05-09T00:42:12.707Z,13.30
2023-05-09T00:44:39.333Z,13.30
2023-05-09T00:47:07.120Z,13.30
2023-05-09T00:49:34.263Z,13.30
2023-05-09T00:52:02.607Z,13.30
2023-05-09T00:54:29.345Z,13.40
2023-05-09T00:56:56.192Z,13.30
2023-05-09T00:59:22.808Z,13.30
2023-05-09T01:01:49.662Z,13.30
2023-05-09T01:04:16.952Z,13.30
2023-05-09T01:07:25.405Z,13.20
2023-05-09T01:10:12.058Z,13.20
2023-05-09T01:12:47.598Z,13.10
2023-05-09T01:15:21.592Z,13.10
2023-05-09T01:18:03.642Z,13.10
2023-05-09T01:20:38.623Z,13.00
2023-05-09T01:23:32.331Z,13.00
2023-05-09T01:26:13.980Z,13.00
2023-05-09T01:28:49.164Z,13.10
2023-05-09T01:31:16.840Z,13.10
2023-05-09T01:33:46.698Z,13.20
2023-05-09T01:36:17.249Z,13.10
2023-05-09T01:38:50.116Z,13.10
2023-05-09T01:41:17.913Z,13.20
2023-05-09T01:43:47.153Z,13.20
2023-05-09T01:46:15.994Z,13.20
2023-05-09T01:48:43.560Z,13.20
2023-05-09T01:51:13.611Z,13.20
2023-05-09T01:53:40.934Z,13.20
2023-05-09T01:56:09.251Z,13.10
2023-05-09T01:58:38.103Z,13.10
2023-05-09T02:01:05.922Z,13.10
2023-05-09T02:03:34.134Z,13.10
2023-05-09T02:06:03.194Z,13.10
2023-05-09T02:08:31.171Z,13.00
2023-05-09T02:10:58.420Z,13.00
2023-05-09T02:13:25.140Z,13.00
2023-05-09T02:15:52.233Z,13.00
2023-05-09T02:18:18.814Z,13.00
2023-05-09T02:20:45.782Z,13.00
2023-05-09T02:23:12.589Z,13.10
2023-05-09T02:25:40.596Z,13.00
2023-05-09T02:28:09.991Z,12.90
2023-05-09T02:30:41.930Z,12.90
2023-05-09T02:33:11.697Z,12.90
2023-05-09T02:35:41.747Z,13.00
2023-05-09T02:38:08.623Z,12.90
2023-05-09T02:40:36.195Z,12.90
2023-05-09T02:43:03.145Z,12.90
2023-05-09T02:45:30.014Z,12.90
2023-05-09T02:47:56.803Z,12.90
2023-05-09T02:50:23.664Z,12.90
2023-05-09T02:52:50.367Z,12.90
2023-05-09T02:55:17.241Z,12.90
2023-05-09T02:57:44.502Z,12.90
2023-05-09T03:00:12.099Z,12.90
2023-05-09T03:02:39.443Z,12.80
2023-05-09T03:05:06.498Z,12.80
2023-05-09T03:07:33.188Z,12.80
2023-05-09T03:09:59.797Z,12.70
2023-05-09T03:12:26.512Z,12.70
2023-05-09T03:14:53.122Z,12.60
2023-05-09T03:17:21.398Z,12.60
2023-05-09T03:19:48.572Z,12.60
2023-05-09T03:22:16.047Z,12.60
2023-05-09T03:24:42.658Z,12.50
2023-05-09T03:27:09.257Z,12.50
2023-05-09T03:29:35.900Z,12.50
2023-05-09T03:32:02.548Z,12.50
2023-05-09T03:34:29.155Z,12.50
2023-05-09T03:36:55.762Z,12.50
2023-05-09T03:39:22.400Z,12.50
2023-05-09T03:41:49.234Z,12.50
2023-05-09T03:44:15.950Z,12.50
2023-05-09T03:46:42.591Z,12.40
2023-05-09T03:49:09.262Z,12.40
2023-05-09T03:51:36.583Z,12.40
2023-05-09T03:54:03.437Z,12.40
2023-05-09T03:56:30.009Z,12.40
2023-05-09T03:58:56.613Z,12.30
2023-05-09T04:01:23.209Z,12.30
2023-05-09T04:03:50.366Z,12.40
2023-05-09T04:06:17.065Z,12.30
2023-05-09T04:08:43.800Z,12.40
2023-05-09T04:11:10.675Z,12.50
2023-05-09T04:13:37.310Z,12.50
2023-05-09T04:16:04.376Z,12.50
2023-05-09T04:18:31.287Z,12.50
2023-05-09T04:20:57.879Z,12.60
2023-05-09T04:23:24.741Z,12.60
2023-05-09T04:25:52.040Z,12.60
2023-05-09T04:28:18.616Z,12.70
2023-05-09T04:30:45.784Z,12.70
2023-05-09T04:33:13.107Z,12.80
2023-05-09T04:35:39.811Z,12.80
2023-05-09T04:38:06.455Z,12.80
2023-05-09T04:40:33.440Z,12.90
2023-05-09T04:43:00.023Z,13.00
2023-05-09T04:45:26.666Z,13.00
2023-05-09T04:47:53.339Z,13.10
2023-05-09T04:50:19.982Z,13.10
2023-05-09T04:52:46.638Z,13.00
2023-05-09T04:55:13.388Z,13.10
2023-05-09T04:57:40.232Z,13.10
2023-05-09T05:00:08.004Z,13.20
2023-05-09T05:02:34.704Z,13.20
2023-05-09T05:05:10.821Z,13.20
2023-05-09T05:07:38.576Z,13.30
2023-05-09T05:10:06.458Z,13.40
2023-05-09T05:12:33.158Z,13.50
2023-05-09T05:14:59.745Z,13.50
2023-05-09T05:17:29.293Z,13.50
2023-05-09T05:19:56.072Z,13.60
2023-05-09T05:22:23.148Z,13.60
2023-05-09T05:24:49.904Z,13.60
2023-05-09T05:27:16.534Z,13.60
2023-05-09T05:29:43.152Z,13.60
2023-05-09T05:32:10.597Z,13.60
2023-05-09T05:34:39.257Z,13.60
2023-05-09T05:37:05.897Z,13.60
2023-05-09T05:39:32.522Z,13.70
2023-05-09T05:41:59.220Z,13.80
2023-05-09T05:44:25.806Z,13.80
2023-05-09T05:46:52.372Z,14.00
2023-05-09T05:49:18.971Z,14.10
2023-05-09T05:51:45.617Z,14.30
2023-05-09T05:54:12.278Z,14.40
2023-05-09T05:56:38.849Z,14.50
2023-05-09T05:59:06.594Z,14.50
2023-05-09T06:01:33.238Z,14.70
2023-05-09T06:04:00.027Z,14.90
2023-05-09T06:11:24.138Z,15.20
2023-05-09T06:13:50.701Z,15.20
2023-05-09T06:16:19.917Z,15.40
2023-05-09T06:18:47.739Z,15.70
2023-05-09T06:21:14.373Z,15.70
2023-05-09T06:55:56.188Z,16.70
2023-05-09T06:58:23.473Z,16.60
2023-05-09T07:00:51.263Z,16.30
2023-05-09T07:03:17.883Z,16.50
2023-05-09T07:05:44.490Z,16.50
2023-05-09T07:08:11.180Z,16.50
2023-05-09T07:10:38.744Z,16.60
2023-05-09T07:13:06.078Z,16.70
2023-05-09T07:15:41.492Z,17.00
2023-05-09T07:18:09.556Z,17.10
2023-05-09T07:20:36.517Z,17.40
2023-05-09T07:23:04.232Z,17.50
2023-05-09T08:46:43.996Z,19.60
2023-05-09T08:49:11.286Z,19.60
2023-05-09T08:51:38.203Z,19.60
2023-05-09T08:54:05.605Z,19.70
2023-05-09T08:56:32.358Z,19.90
2023-05-09T08:58:59.059Z,20.00
2023-05-09T09:01:26.853Z,19.90
2023-05-09T09:03:54.069Z,20.10
2023-05-09T09:06:23.223Z,20.40
2023-05-09T09:08:50.870Z,20.70
2023-05-09T09:11:17.616Z,20.50
2023-05-09T09:13:45.884Z,20.10
2023-05-09T09:16:20.463Z,19.90
2023-05-09T09:18:47.860Z,19.70
2023-05-09T09:21:17.002Z,19.70
2023-05-09T09:23:44.253Z,19.90
2023-05-09T09:26:10.901Z,19.90
2023-05-09T09:28:37.458Z,19.90
2023-05-09T09:31:19.776Z,19.90
2023-05-09T09:33:46.657Z,20.00
2023-05-09T09:36:13.210Z,20.10
2023-05-09T09:38:42.643Z,20.40
2023-05-09T09:41:11.321Z,20.70
2023-05-09T09:43:37.947Z,20.80
2023-05-09T09:46:05.441Z,20.60
2023-05-09T09:48:34.135Z,20.60
2023-05-09T09:51:11.443Z,20.60
2023-05-09T09:53:42.416Z,20.80
2023-05-09T09:56:09.326Z,21.10
2023-05-09T09:58:36.367Z,21.30
2023-05-09T10:01:16.845Z,21.20
2023-05-09T10:03:48.091Z,20.70
2023-05-09T10:06:16.402Z,20.90
2023-05-09T10:08:47.167Z,21.10
2023-05-09T10:11:14.574Z,21.90
2023-05-09T10:13:42.433Z,22.40
2023-05-09T10:16:10.083Z,22.50
2023-05-09T10:18:39.144Z,22.60
2023-05-09T10:21:08.010Z,22.60
2023-05-09T10:23:37.980Z,22.60
2023-05-09T10:26:12.788Z,22.80
2023-05-09T10:28:41.859Z,22.50
2023-05-09T10:31:28.456Z,22.20
2023-05-09T10:33:58.661Z,22.10
2023-05-09T10:36:25.360Z,22.50
2023-05-09T10:38:54.894Z,22.70
2023-05-09T10:41:22.207Z,22.60
2023-05-09T10:43:48.962Z,22.40
2023-05-09T10:46:16.456Z,22.00
2023-05-09T10:48:43.921Z,22.20
2023-05-09T10:51:11.957Z,21.70
2023-05-09T10:53:49.730Z,22.20
2023-05-09T10:56:33.046Z,22.30
2023-05-09T10:59:00.415Z,22.50
2023-05-09T11:01:34.487Z,22.20
2023-05-09T11:04:02.476Z,22.20
2023-05-09T11:06:50.732Z,22.50
2023-05-09T11:09:38.813Z,22.70
2023-05-09T11:12:05.414Z,22.90
2023-05-09T11:14:39.205Z,22.80
2023-05-09T11:17:06.672Z,22.90
2023-05-09T11:19:45.350Z,22.80
2023-05-09T11:22:17.823Z,22.10
2023-05-09T11:24:46.336Z,22.00
2023-05-09T11:27:21.135Z,22.00
2023-05-09T11:30:04.462Z,21.80
2023-05-09T11:32:33.174Z,22.10
2023-05-09T11:35:27.305Z,22.90
2023-05-09T11:38:00.270Z,23.10
2023-05-09T11:40:28.325Z,23.00
2023-05-09T11:42:58.666Z,23.20
2023-05-09T11:45:28.047Z,22.90
2023-05-09T11:47:55.164Z,22.90
2023-05-09T11:50:21.965Z,23.00
2023-05-09T11:52:49.318Z,23.10
2023-05-09T11:55:18.420Z,23.40
2023-05-09T14:15:02.124Z,22.50
2023-05-09T14:17:28.721Z,22.30
2023-05-09T14:19:55.356Z,22.40
2023-05-09T14:22:21.976Z,22.60
2023-05-09T14:24:48.656Z,22.60
2023-05-09T14:27:15.314Z,22.40
2023-05-09T14:29:43.149Z,22.10
2023-05-09T14:32:12.810Z,22.00
2023-05-09T14:34:39.557Z,22.00
2023-05-09T14:37:13.493Z,21.90
2023-05-09T14:39:42.034Z,21.90
2023-05-09T14:42:11.275Z,21.90
2023-05-09T14:44:38.727Z,21.80
2023-05-09T14:47:05.851Z,21.50
2023-05-09T14:49:33.016Z,21.40
2023-05-09T14:51:59.958Z,21.50
2023-05-09T14:54:26.677Z,21.70
2023-05-09T14:56:53.356Z,21.90
2023-05-09T14:59:20.058Z,22.10
2023-05-09T15:01:46.954Z,22.20
2023-05-09T15:04:13.723Z,22.70
2023-05-09T15:06:40.941Z,22.80
2023-05-09T15:09:07.799Z,22.50
2023-05-09T15:11:46.875Z,22.70
2023-05-09T15:14:14.872Z,22.50
2023-05-09T15:16:41.739Z,22.90
2023-05-09T15:19:08.765Z,22.90
2023-05-09T15:21:35.673Z,23.10
2023-05-09T15:24:02.520Z,23.00
2023-05-09T15:26:29.930Z,22.80
2023-05-09T15:28:56.580Z,22.80
2023-05-09T15:31:24.800Z,22.90
2023-05-09T15:33:51.761Z,22.70
2023-05-09T15:36:18.398Z,22.70
2023-05-09T15:38:48.353Z,22.50
2023-05-09T15:41:15.727Z,22.40
2023-05-09T15:43:42.393Z,22.50
2023-05-09T15:46:09.239Z,22.30
2023-05-09T15:48:36.202Z,22.10
2023-05-09T15:51:03.920Z,22.10
2023-05-09T15:53:30.602Z,22.00
2023-05-09T15:55:57.171Z,22.00
2023-05-09T15:58:23.789Z,22.00
2023-05-09T16:00:50.846Z,22.00
2023-05-09T16:03:18.582Z,22.00
2023-05-09T16:05:45.391Z,22.00
2023-05-09T16:08:12.447Z,21.80
2023-05-09T16:10:39.080Z,21.60
2023-05-09T16:13:05.790Z,21.50
2023-05-09T16:15:32.593Z,21.40
2023-05-09T16:17:59.215Z,21.30
2023-05-09T16:20:25.877Z,21.20
2023-05-09T16:22:52.428Z,21.10
2023-05-09T16:25:19.085Z,21.00
2023-05-09T16:27:45.681Z,20.90
2023-05-09T16:30:13.018Z,20.80
2023-05-09T16:32:39.866Z,20.70
2023-05-09T16:35:07.588Z,20.80
2023-05-09T16:37:35.666Z,20.70
2023-05-09T16:40:02.954Z,20.70
2023-05-09T16:42:29.871Z,20.80
2023-05-09T16:44:57.764Z,20.60
2023-05-09T16:47:24.434Z,20.60
2023-05-09T16:49:51.009Z,20.50
2023-05-09T16:52:17.620Z,20.40
2023-05-09T16:54:44.201Z,20.40
2023-05-09T16:57:10.814Z,20.40
2023-05-09T16:59:37.537Z,20.20
2023-05-09T17:02:04.455Z,20.10
2023-05-09T17:04:31.226Z,20.00
2023-05-09T17:06:57.921Z,19.90
2023-05-09T17:09:24.645Z,19.90
2023-05-09T17:11:51.221Z,19.80
2023-05-09T17:14:17.903Z,19.70
2023-05-09T17:16:44.649Z,19.60
2023-05-09T17:19:11.314Z,19.60
2023-05-09T17:21:41.273Z,19.50
2023-05-09T17:24:09.437Z,19.40
2023-05-09T17:26:36.128Z,19.30
2023-05-09T17:29:03.685Z,19.00
2023-05-09T17:31:31.216Z,18.60
2023-05-09T17:33:57.992Z,18.20
2023-05-09T17:36:25.640Z,17.80
2023-05-09T17:38:52.616Z,17.60
2023-05-09T17:41:19.341Z,17.40
2023-05-09T17:43:46.128Z,17.30
2023-05-09T17:46:14.749Z,17.10
2023-05-09T17:48:41.977Z,17.00
2023-05-09T17:51:08.609Z,16.80
2023-05-09T17:53:35.313Z,16.60
2023-05-09T17:56:01.988Z,16.50
2023-05-09T17:58:28.854Z,16.40
2023-05-09T18:00:55.878Z,16.40
2023-05-09T18:03:22.556Z,16.40
2023-05-09T18:05:49.369Z,16.40
2023-05-09T18:08:16.717Z,16.40
2023-05-09T18:10:43.784Z,16.40
2023-05-09T18:13:10.849Z,16.40
2023-05-09T18:15:38.463Z,16.30
2023-05-09T18:18:06.218Z,16.30
2023-05-09T18:20:33.130Z,16.20
2023-05-09T18:23:01.538Z,16.10
2023-05-09T18:25:28.547Z,16.00
2023-05-09T18:27:56.438Z,16.00
2023-05-09T18:30:23.093Z,15.90
2023-05-09T18:32:49.724Z,15.90
2023-05-09T18:35:16.409Z,15.90
2023-05-09T18:37:43.082Z,15.70
2023-05-09T18:40:14.733Z,15.90
2023-05-09T18:42:44.406Z,15.80
2023-05-09T18:45:11.502Z,15.80
2023-05-09T18:47:38.290Z,15.70
2023-05-09T18:50:06.937Z,15.60
2023-05-09T18:52:34.291Z,15.70
2023-05-09T18:55:00.896Z,15.50
2023-05-09T18:57:28.202Z,15.50
2023-05-09T18:59:55.848Z,15.50
2023-05-09T19:02:23.496Z,15.40
2023-05-09T19:04:51.416Z,15.40
2023-05-09T19:07:18.149Z,15.40
2023-05-09T19:09:44.816Z,15.40
2023-05-09T19:12:11.400Z,15.40
2023-05-09T19:14:37.979Z,15.30
2023-05-09T19:17:05.581Z,15.20
2023-05-09T19:19:32.600Z,15.20
2023-05-09T19:22:01.386Z,15.20
2023-05-09T19:24:28.288Z,15.20
2023-05-09T19:26:54.931Z,15.20
2023-05-09T19:29:21.512Z,15.10
2023-05-09T19:31:48.104Z,15.10
2023-05-09T19:34:14.699Z,15.10
2023-05-09T19:36:41.323Z,15.10
2023-05-09T19:39:09.190Z,15.10
2023-05-09T19:41:35.922Z,15.00
2023-05-09T19:44:02.565Z,14.90
2023-05-09T19:46:29.541Z,15.00
2023-05-09T19:48:56.218Z,15.70
2023-05-09T19:51:22.887Z,14.80
2023-05-09T19:53:49.488Z,14.80
2023-05-09T19:56:16.170Z,14.70
2023-05-09T19:58:43.247Z,14.70
2023-05-09T20:01:10.019Z,14.70
2023-05-09T20:03:37.118Z,14.70
2023-05-09T20:06:04.130Z,14.60
2023-05-09T20:08:31.180Z,14.70
2023-05-09T20:10:59.536Z,14.60
2023-05-09T20:13:27.013Z,14.60
2023-05-09T20:15:53.873Z,14.60
2023-05-09T20:18:20.609Z,14.50
2023-05-09T20:20:47.285Z,14.50
2023-05-09T20:23:14.171Z,14.50
2023-05-09T20:25:40.784Z,14.50
2023-05-09T20:28:07.510Z,14.50
2023-05-09T20:30:35.355Z,14.50
2023-05-09T20:33:01.962Z,14.50
2023-05-09T20:35:28.583Z,14.50
2023-05-09T20:37:55.299Z,14.40
2023-05-09T20:40:21.942Z,14.50
2023-05-09T20:42:48.545Z,14.50
2023-05-09T20:45:15.185Z,14.40
2023-05-09T20:47:41.890Z,14.60
2023-05-09T20:50:08.905Z,14.40
2023-05-09T20:52:35.660Z,14.50
2023-05-09T20:55:02.342Z,14.40
2023-05-09T20:57:28.998Z,14.40
2023-05-09T20:59:55.707Z,14.30
2023-05-09T21:02:22.419Z,14.10
2023-05-09T21:04:49.158Z,14.30
2023-05-09T21:07:19.081Z,14.30
2023-05-09T21:09:49.683Z,14.30
2023-05-09T21:12:17.116Z,14.20
2023-05-09T21:14:44.780Z,14.20
2023-05-09T21:17:12.061Z,14.20
2023-05-09T21:19:38.722Z,14.20
2023-05-09T21:22:05.429Z,14.10
2023-05-09T21:24:32.165Z,14.10
2023-05-09T21:26:58.763Z,14.00
2023-05-09T21:29:25.467Z,14.10
2023-05-09T21:31:52.135Z,14.00
2023-05-09T21:34:19.086Z,14.00
2023-05-09T21:36:45.674Z,14.00
2023-05-09T21:39:12.312Z,14.00
2023-05-09T21:41:40.004Z,14.10
2023-05-09T21:44:11.176Z,13.90
2023-05-09T21:46:38.060Z,13.90
2023-05-09T21:49:04.799Z,13.90
2023-05-09T21:51:31.556Z,13.90
2023-05-09T21:53:58.263Z,13.90
2023-05-09T21:56:24.909Z,13.90
2023-05-09T21:58:51.465Z,13.80
2023-05-09T22:01:19.216Z,13.80
2023-05-09T22:03:46.371Z,13.80
2023-05-09T22:06:13.540Z,13.80
2023-05-09T22:08:40.243Z,13.70
2023-05-09T22:11:07.715Z,13.70
2023-05-09T22:13:36.301Z,13.70
2023-05-09T22:16:03.788Z,13.70
2023-05-09T22:18:31.305Z,13.70
2023-05-09T22:20:57.971Z,13.70
2023-05-09T22:23:24.847Z,13.70
2023-05-09T22:25:51.443Z,13.60
2023-05-09T22:28:18.117Z,13.50
2023-05-09T22:30:44.774Z,13.60
2023-05-09T22:33:11.703Z,13.60
2023-05-09T22:35:38.669Z,13.70
2023-05-09T22:38:05.503Z,13.60
2023-05-09T22:40:32.259Z,13.50
2023-05-09T22:42:58.948Z,13.60
2023-05-09T22:45:25.814Z,13.50
2023-05-09T22:47:52.581Z,13.70
2023-05-09T22:50:19.502Z,13.50
2023-05-09T22:52:46.140Z,13.70
2023-05-09T22:55:12.754Z,13.60
2023-05-09T22:57:40.220Z,13.50
2023-05-09T23:00:07.633Z,13.50
2023-05-09T23:02:34.277Z,13.50
2023-05-09T23:05:00.858Z,13.40
2023-05-09T23:07:27.479Z,13.30
2023-05-09T23:09:54.118Z,13.00
2023-05-09T23:12:20.735Z,13.40
2023-05-09T23:14:47.398Z,13.40
2023-05-09T23:17:13.981Z,13.40
2023-05-09T23:19:40.618Z,13.50
2023-05-09T23:22:07.195Z,13.40
2023-05-09T23:24:33.889Z,13.40
2023-05-09T23:27:02.476Z,13.20
2023-05-09T23:29:29.344Z,13.30
2023-05-09T23:31:56.404Z,13.10
2023-05-09T23:34:23.032Z,13.40
2023-05-09T23:36:49.632Z,13.10
2023-05-09T23:39:16.571Z,13.30
2023-05-09T23:41:43.347Z,13.30
2023-05-09T23:44:11.269Z,13.30
2023-05-09T23:46:37.892Z,13.30
2023-05-09T23:49:04.630Z,13.20
2023-05-09T23:51:31.814Z,13.20
2023-05-09T23:53:58.533Z,13.10
2023-05-09T23:56:25.280Z,13.00
2023-05-09T23:58:51.915Z,12.90
